createdAt,value
2022-09-12T00:01:31.222Z,4.00
2022-09-12T00:05:02.296Z,6.17
2022-09-12T00:08:18.205Z,4.00
2022-09-12T00:11:49.294Z,4.07
2022-09-12T00:15:06.484Z,4.10
2022-09-12T00:18:40.298Z,4.00
2022-09-12T00:21:56.365Z,3.90
2022-09-12T00:25:12.393Z,4.33
2022-09-12T00:28:19.310Z,3.70
2022-09-12T00:31:51.323Z,4.33
2022-09-12T00:34:58.271Z,4.90
2022-09-12T00:38:17.336Z,4.00
2022-09-12T00:41:33.296Z,4.57
2022-09-12T00:45:13.365Z,4.27
2022-09-12T00:48:33.575Z,4.60
2022-09-12T00:52:04.544Z,4.50
2022-09-12T00:55:20.551Z,4.10
2022-09-12T00:58:48.435Z,4.15
2022-09-12T01:02:04.572Z,5.25
2022-09-12T01:05:37.480Z,4.50
2022-09-12T01:08:57.402Z,4.60
2022-09-12T01:12:28.392Z,4.93
2022-09-12T01:15:32.503Z,5.97
2022-09-12T01:19:06.372Z,5.47
2022-09-12T01:22:28.441Z,5.43
2022-09-12T01:25:59.496Z,5.15
2022-09-12T01:29:20.455Z,5.00
2022-09-12T01:32:56.569Z,5.30
2022-09-12T01:36:12.496Z,5.27
2022-09-12T01:39:43.588Z,5.07
2022-09-12T01:42:59.529Z,6.10
2022-09-12T01:46:28.495Z,8.63
2022-09-12T01:49:46.643Z,6.13
2022-09-12T01:53:17.505Z,6.60
2022-09-12T01:56:37.819Z,6.17
2022-09-12T02:00:06.643Z,5.83
2022-09-12T02:03:37.498Z,6.83
2022-09-12T02:06:54.727Z,7.13
2022-09-12T02:10:29.156Z,5.20
2022-09-12T02:13:44.913Z,5.43
2022-09-12T02:17:15.597Z,6.50
2022-09-12T02:20:47.509Z,6.10
2022-09-12T02:24:01.718Z,6.57
2022-09-12T02:27:17.765Z,6.75
2022-09-12T02:30:48.785Z,6.60
2022-09-12T02:34:04.766Z,7.03
2022-09-12T02:37:35.684Z,6.03
2022-09-12T02:40:58.698Z,7.60
2022-09-12T02:44:29.851Z,6.73
2022-09-12T02:47:45.706Z,7.43
2022-09-12T02:51:04.643Z,6.30
2022-09-12T02:54:20.744Z,6.73
2022-09-12T02:57:55.818Z,6.70
2022-09-12T03:01:11.838Z,7.73
2022-09-12T03:04:48.748Z,7.30
2022-09-12T03:08:07.565Z,7.50
2022-09-12T03:11:39.916Z,7.00
2022-09-12T03:14:58.742Z,7.30
2022-09-12T03:18:34.935Z,7.33
2022-09-12T03:21:53.752Z,7.73
2022-09-12T03:25:24.777Z,7.20
2022-09-12T03:28:52.906Z,6.90
2022-09-12T03:32:20.768Z,7.57
2022-09-12T03:35:40.838Z,7.23
2022-09-12T03:39:02.872Z,8.20
2022-09-12T03:42:06.925Z,6.57
2022-09-12T03:45:37.943Z,7.10
2022-09-12T03:48:54.120Z,7.73
2022-09-12T03:52:26.910Z,6.70
2022-09-12T03:55:42.737Z,6.50
2022-09-12T03:58:59.922Z,6.10
2022-09-12T04:02:03.983Z,6.00
2022-09-12T04:05:20.910Z,6.77
2022-09-12T04:08:37.942Z,5.20
2022-09-12T04:11:56.939Z,5.97
2022-09-12T04:15:12.854Z,5.77
2022-09-12T04:18:29.973Z,5.60
2022-09-12T04:21:46.034Z,6.07
2022-09-12T04:25:21.066Z,5.95
2022-09-12T04:28:25.025Z,5.63
2022-09-12T04:31:53.100Z,5.90
2022-09-12T04:35:09.250Z,5.87
2022-09-12T04:38:28.072Z,6.63
2022-09-12T04:41:57.290Z,5.90
2022-09-12T04:45:16.106Z,6.27
2022-09-12T04:48:23.073Z,6.33
2022-09-12T04:51:54.164Z,5.80
2022-09-12T04:55:01.163Z,5.87
2022-09-12T04:58:33.143Z,7.13
2022-09-12T05:01:52.233Z,6.40
2022-09-12T05:05:11.130Z,8.53
2022-09-12T05:08:15.230Z,6.90
2022-09-12T05:12:04.734Z,7.50
2022-09-12T05:15:07.242Z,8.50
2022-09-12T05:18:29.107Z,7.70
2022-09-12T05:21:51.178Z,7.23
2022-09-12T05:25:10.157Z,7.70
2022-09-12T05:28:14.273Z,7.40
2022-09-12T05:31:52.428Z,8.80
2022-09-12T05:34:56.171Z,7.87
2022-09-12T05:38:18.199Z,8.90
2022-09-12T05:41:34.250Z,8.63
2022-09-12T05:44:53.307Z,9.27
2022-09-12T05:48:13.389Z,10.37
2022-09-12T05:51:42.352Z,8.47
2022-09-12T05:54:46.316Z,11.47
2022-09-12T05:58:02.327Z,9.93
2022-09-12T06:01:06.529Z,11.65
2022-09-12T06:04:41.333Z,9.73
2022-09-12T06:07:45.360Z,12.03
2022-09-12T06:11:02.416Z,12.10
2022-09-12T06:14:05.313Z,10.27
2022-09-12T06:17:24.373Z,11.05
2022-09-12T06:20:47.394Z,10.00
2022-09-12T06:24:06.385Z,11.37
2022-09-12T06:27:10.451Z,9.97
2022-09-12T06:30:32.373Z,10.17
2022-09-12T06:33:36.434Z,12.05
2022-09-12T06:37:11.466Z,10.95
2022-09-12T06:40:18.452Z,13.00
2022-09-12T06:43:34.414Z,10.40
2022-09-12T06:46:38.501Z,10.80
2022-09-12T06:49:58.644Z,12.13
2022-09-12T06:53:17.807Z,10.75
2022-09-12T06:56:48.493Z,9.77
2022-09-12T06:59:52.454Z,10.70
2022-09-12T07:03:23.436Z,9.80
2022-09-12T07:06:39.529Z,11.23
2022-09-12T07:10:11.524Z,14.03
2022-09-12T07:13:15.621Z,11.90
2022-09-12T07:16:43.702Z,12.70
2022-09-12T07:19:50.563Z,9.75
2022-09-12T07:23:06.592Z,9.47
2022-09-12T07:26:24.648Z,11.10
2022-09-12T07:29:40.751Z,9.83
2022-09-12T07:32:44.930Z,9.00
2022-09-12T07:36:16.552Z,8.37
2022-09-12T07:39:32.836Z,11.03
2022-09-12T07:43:04.671Z,9.63
2022-09-12T07:46:23.855Z,9.77
2022-09-12T07:49:42.814Z,8.97
2022-09-12T07:52:49.862Z,10.30
2022-09-12T07:56:20.731Z,10.40
2022-09-12T07:59:54.094Z,11.43
2022-09-12T08:02:57.759Z,9.97
2022-09-12T08:06:33.648Z,8.70
2022-09-12T08:09:49.910Z,10.17
2022-09-12T08:13:06.038Z,10.05
2022-09-12T08:16:26.811Z,9.33
2022-09-12T08:19:42.689Z,8.57
2022-09-12T08:22:46.682Z,8.37
2022-09-12T08:26:05.967Z,10.47
2022-09-12T08:29:06.786Z,10.23
2022-09-12T08:32:44.906Z,8.70
2022-09-12T08:35:48.879Z,8.80
2022-09-12T08:39:16.800Z,9.40
2022-09-12T08:42:32.771Z,8.70
2022-09-12T08:46:00.834Z,11.10
2022-09-12T08:49:18.829Z,8.93
2022-09-12T08:52:48.000Z,7.83
2022-09-12T08:56:06.809Z,8.73
2022-09-12T08:59:25.781Z,8.90
2022-09-12T09:02:48.932Z,9.40
2022-09-12T09:06:23.942Z,8.53
2022-09-12T09:09:39.918Z,7.53
2022-09-12T09:13:07.717Z,9.35
2022-09-12T09:16:24.030Z,8.63
2022-09-12T09:19:51.852Z,11.40
2022-09-12T09:23:09.992Z,8.45
2022-09-12T09:26:41.939Z,11.35
2022-09-12T09:29:57.923Z,13.73
2022-09-12T09:33:29.008Z,9.47
2022-09-12T09:36:44.964Z,12.77
2022-09-12T09:40:19.077Z,10.33
2022-09-12T09:43:39.020Z,12.05
2022-09-12T09:47:09.956Z,13.30
2022-09-12T09:50:14.076Z,14.15
2022-09-12T09:53:57.307Z,11.95
2022-09-12T09:57:15.165Z,14.77
2022-09-12T10:00:56.535Z,17.73
2022-09-12T10:04:21.093Z,17.80
2022-09-12T10:07:42.063Z,17.43
2022-09-12T10:11:20.050Z,19.90
2022-09-12T10:14:39.047Z,17.93
2022-09-12T10:18:09.238Z,17.10
2022-09-12T10:21:25.030Z,17.40
2022-09-12T10:24:53.192Z,15.80
2022-09-12T10:28:12.085Z,16.00
2022-09-12T10:31:47.146Z,16.50
2022-09-12T10:35:03.122Z,14.50
2022-09-12T10:38:34.092Z,17.40
2022-09-12T10:41:50.185Z,14.77
2022-09-12T10:45:19.095Z,15.40
2022-09-12T10:48:53.380Z,15.17
2022-09-12T10:52:40.168Z,14.20
2022-09-12T10:55:56.389Z,13.53
2022-09-12T10:59:32.242Z,15.37
2022-09-12T11:02:48.284Z,13.57
2022-09-12T11:06:24.259Z,14.20
2022-09-12T11:09:40.339Z,12.40
2022-09-12T11:13:08.341Z,11.20
2022-09-12T11:16:26.340Z,10.77
2022-09-12T11:19:57.327Z,9.60
2022-09-12T11:23:20.299Z,11.23
2022-09-12T11:26:57.307Z,9.70
2022-09-12T11:30:14.541Z,10.30
2022-09-12T11:33:49.453Z,9.25
2022-09-12T11:37:10.693Z,9.63
2022-09-12T11:40:39.304Z,8.40
2022-09-12T11:43:59.510Z,8.67
2022-09-12T11:47:27.375Z,9.37
2022-09-12T11:50:43.352Z,7.70
2022-09-12T11:54:12.331Z,7.50
2022-09-12T11:57:33.679Z,8.33
2022-09-12T12:01:07.363Z,7.57
2022-09-12T12:04:41.459Z,7.97
2022-09-12T12:08:00.417Z,6.20
2022-09-12T12:11:34.392Z,5.83
2022-09-12T12:14:54.437Z,5.30
2022-09-12T12:18:29.637Z,5.47
2022-09-12T12:21:48.425Z,5.60
2022-09-12T12:25:35.520Z,5.50
2022-09-12T12:28:56.583Z,5.53
2022-09-12T12:32:30.474Z,6.33
2022-09-12T12:36:08.633Z,6.00
2022-09-12T12:39:42.771Z,5.73
2022-09-12T12:43:18.614Z,4.37
2022-09-12T12:46:49.345Z,5.95
2022-09-12T12:50:08.728Z,6.20
2022-09-12T12:53:43.583Z,4.57
2022-09-12T12:57:02.730Z,5.57
2022-09-12T13:00:33.450Z,4.80
2022-09-12T13:03:49.572Z,4.33
2022-09-12T13:07:26.618Z,9.40
2022-09-12T13:10:52.643Z,4.10
2022-09-12T13:14:26.595Z,4.27
2022-09-12T13:17:42.605Z,4.30
2022-09-12T13:21:16.644Z,4.00
2022-09-12T13:24:32.464Z,4.10
2022-09-12T13:28:04.644Z,3.70
2022-09-12T13:31:23.707Z,3.70
2022-09-12T13:34:54.726Z,4.35
2022-09-12T13:38:14.691Z,3.57
2022-09-12T13:41:44.829Z,3.30
2022-09-12T13:45:05.751Z,4.10
2022-09-12T13:54:54.586Z,4.10
2022-09-12T13:57:58.837Z,3.85
2022-09-12T14:11:17.874Z,3.80
2022-09-12T14:27:16.835Z,3.15
2022-09-12T14:33:50.970Z,3.50
2022-09-12T14:37:19.314Z,2.90
2022-09-12T14:40:41.938Z,2.80
2022-09-12T14:44:12.897Z,3.20
2022-09-12T14:47:38.905Z,3.30
2022-09-12T14:51:15.880Z,2.90
2022-09-12T14:54:21.123Z,3.00
2022-09-12T15:04:17.950Z,3.20
2022-09-12T15:07:41.030Z,2.90
2022-09-12T15:11:01.063Z,2.65
2022-09-12T15:14:17.058Z,2.90
2022-09-12T15:17:36.066Z,3.30
2022-09-12T15:20:52.988Z,2.50
2022-09-12T15:24:12.134Z,2.60
2022-09-12T15:27:16.054Z,2.20
2022-09-12T15:30:36.073Z,2.40
2022-09-12T15:33:51.884Z,2.20
2022-09-12T15:37:30.011Z,2.30
2022-09-12T15:43:49.047Z,2.33
2022-09-12T15:46:53.055Z,2.60
2022-09-12T15:50:10.147Z,2.30
2022-09-12T15:53:27.054Z,2.60
2022-09-12T15:56:46.145Z,2.27
2022-09-12T15:59:50.216Z,2.43
2022-09-12T16:03:17.855Z,2.50
2022-09-12T16:06:34.996Z,2.40
2022-09-12T16:09:51.184Z,2.40
2022-09-12T16:13:10.117Z,2.40
2022-09-12T16:16:26.193Z,2.47
2022-09-12T16:19:45.128Z,2.47
2022-09-12T16:22:49.164Z,2.17
2022-09-12T16:26:25.247Z,2.20
2022-09-12T16:29:29.288Z,2.50
2022-09-12T16:33:03.305Z,2.40
2022-09-12T16:36:19.281Z,2.20
2022-09-12T16:39:38.313Z,2.23
2022-09-12T16:42:58.213Z,2.20
2022-09-12T16:46:30.341Z,2.40
2022-09-12T16:49:34.255Z,2.00
2022-09-12T16:52:56.262Z,2.30
2022-09-12T16:56:15.281Z,2.60
2022-09-12T16:59:45.358Z,2.47
2022-09-12T17:03:01.580Z,2.30
2022-09-12T17:06:32.328Z,2.03
2022-09-12T17:09:36.377Z,2.30
2022-09-12T17:12:52.400Z,2.30
2022-09-12T17:16:12.483Z,2.60
2022-09-12T17:19:41.511Z,2.27
2022-09-12T17:22:45.313Z,2.47
2022-09-12T17:26:14.425Z,2.07
2022-09-12T17:29:30.376Z,2.20
2022-09-12T17:33:05.459Z,2.93
2022-09-12T17:36:29.295Z,2.67
2022-09-12T17:39:45.308Z,2.30
2022-09-12T17:42:49.474Z,2.40
2022-09-12T17:46:22.507Z,2.30
2022-09-12T17:49:45.553Z,2.37
2022-09-12T17:53:04.509Z,2.53
2022-09-12T17:56:08.440Z,2.50
2022-09-12T17:59:39.433Z,2.77
2022-09-12T18:02:43.643Z,2.43
2022-09-12T18:06:18.615Z,2.50
2022-09-12T18:09:34.849Z,2.00
2022-09-12T18:12:54.572Z,2.90
2022-09-12T18:16:01.553Z,2.10
2022-09-12T18:19:32.756Z,2.50
2022-09-12T18:22:52.586Z,2.60
2022-09-12T18:26:24.837Z,2.47
2022-09-12T18:29:42.001Z,3.00
2022-09-12T18:33:18.821Z,2.40
2022-09-12T18:36:32.739Z,2.67
2022-09-12T18:40:13.601Z,2.50
2022-09-12T18:43:24.760Z,2.55
2022-09-12T18:46:55.880Z,2.50
2022-09-12T18:49:59.623Z,2.20
2022-09-12T18:53:18.672Z,2.60
2022-09-12T18:56:38.639Z,2.90
2022-09-12T18:59:57.720Z,2.75
2022-09-12T19:03:01.742Z,2.90
2022-09-12T19:06:35.742Z,3.30
2022-09-12T19:09:39.629Z,3.13
2022-09-12T19:13:09.697Z,2.80
2022-09-12T19:16:28.721Z,2.70
2022-09-12T19:19:47.697Z,3.33
2022-09-12T19:22:51.703Z,4.07
2022-09-12T19:26:22.830Z,2.50
2022-09-12T19:29:42.684Z,2.90
2022-09-12T19:33:01.811Z,2.90
2022-09-12T19:36:43.365Z,4.10
2022-09-12T19:39:37.093Z,3.00
2022-09-12T19:42:40.797Z,3.93
2022-09-12T19:46:14.856Z,2.75
2022-09-12T19:49:18.749Z,2.93
2022-09-12T19:52:37.830Z,3.10
2022-09-12T19:55:41.863Z,4.73
2022-09-12T19:59:09.913Z,3.50
2022-09-12T20:02:29.878Z,3.43
2022-09-12T20:05:48.861Z,7.00
2022-09-12T20:09:04.967Z,3.67
2022-09-12T20:12:20.807Z,3.93
2022-09-12T20:15:39.887Z,4.40
2022-09-12T20:19:12.115Z,3.90
2022-09-12T20:22:15.831Z,4.20
2022-09-12T20:25:34.871Z,3.87
2022-09-12T20:28:39.008Z,5.80
2022-09-12T20:32:09.975Z,4.27
2022-09-12T20:35:30.009Z,4.63
2022-09-12T20:38:45.937Z,4.80
2022-09-12T20:42:02.000Z,5.50
2022-09-12T20:45:30.051Z,4.73
2022-09-12T20:48:50.108Z,4.87
2022-09-12T20:52:22.089Z,5.15
2022-09-12T20:55:26.063Z,6.00
2022-09-12T20:58:57.267Z,5.40
2022-09-12T21:02:13.084Z,6.53
2022-09-12T21:05:32.060Z,4.97
2022-09-12T21:08:52.023Z,6.33
2022-09-12T21:12:23.058Z,4.83
2022-09-12T21:15:26.938Z,6.13
2022-09-12T21:18:58.524Z,4.47
2022-09-12T21:22:04.956Z,6.47
2022-09-12T21:25:35.061Z,6.45
2022-09-12T21:28:39.152Z,5.60
2022-09-12T21:32:13.923Z,5.90
2022-09-12T21:35:14.153Z,6.20
2022-09-12T21:38:45.137Z,7.70
2022-09-12T21:42:03.114Z,5.77
2022-09-12T21:45:22.205Z,5.67
2022-09-12T21:48:26.167Z,5.57
2022-09-12T21:51:48.257Z,5.90
2022-09-12T21:54:52.269Z,6.40
2022-09-12T21:58:22.161Z,5.13
2022-09-12T22:01:39.498Z,5.07
2022-09-12T22:05:01.340Z,5.65
2022-09-12T22:08:05.276Z,5.07
2022-09-12T22:11:36.358Z,4.83
2022-09-12T22:14:54.212Z,5.45
2022-09-12T22:18:10.464Z,5.37
2022-09-12T22:21:29.244Z,4.60
2022-09-12T22:24:31.868Z,4.60
2022-09-12T22:27:36.292Z,5.60
2022-09-12T22:31:08.390Z,6.40
2022-09-12T22:34:12.270Z,4.10
2022-09-12T22:37:31.406Z,4.23
2022-09-12T22:40:35.668Z,4.80
2022-09-12T22:43:54.398Z,4.83
2022-09-12T22:47:11.226Z,4.60
2022-09-12T22:50:33.343Z,4.55
2022-09-12T22:53:37.344Z,4.30
2022-09-12T22:56:56.450Z,4.25
2022-09-12T23:00:00.434Z,6.03
2022-09-12T23:03:38.510Z,4.33
2022-09-12T23:06:42.388Z,5.23
2022-09-12T23:10:02.456Z,4.60
2022-09-12T23:13:09.363Z,4.25
2022-09-12T23:16:40.392Z,5.20
2022-09-12T23:20:12.533Z,5.03
2022-09-12T23:23:31.556Z,4.60
2022-09-12T23:26:47.455Z,4.20
2022-09-12T23:30:03.509Z,4.40
2022-09-12T23:33:07.720Z,4.10
2022-09-12T23:36:39.658Z,5.90
2022-09-12T23:39:55.644Z,4.50
2022-09-12T23:43:14.524Z,5.55
2022-09-12T23:46:18.509Z,4.50
2022-09-12T23:49:34.581Z,5.60
2022-09-12T23:52:51.637Z,5.67
2022-09-12T23:56:22.635Z,6.70
2022-09-12T23:59:27.027Z,4.93
